sensor_id;sensor_type;location;lat;lon;timestamp;pressure;altitude;pressure_sealevel;temperature;humidity
30967;BME280;17649;51.836;8.330;2024-01-06T00:00:43;99632.31;;;6.85;100.00
30967;BME280;17649;51.836;8.330;2024-01-06T00:03:44;99633.53;;;6.78;100.00
30967;BME280;17649;51.836;8.330;2024-01-06T00:06:44;99626.41;;;6.68;100.00
30967;BME280;17649;51.836;8.330;2024-01-06T00:09:44;99626.91;;;6.90;100.00
30967;BME280;17649;51.836;8.330;2024-01-06T00:12:45;99628.06;;;7.00;100.00
30967;BME280;17649;51.836;8.330;2024-01-06T00:15:45;99628.97;;;6.68;100.00
30967;BME280;17649;51.836;8.330;2024-01-06T00:18:46;99640.97;;;6.99;100.00
30967;BME280;17649;51.836;8.330;2024-01-06T00:21:46;99646.31;;;6.80;100.00
30967;BME280;17649;51.836;8.330;2024-01-06T00:24:47;99643.75;;;6.80;100.00
30967;BME280;17649;51.836;8.330;2024-01-06T00:27:48;99650.41;;;7.14;100.00
30967;BME280;17649;51.836;8.330;2024-01-06T00:30:48;99644.47;;;6.98;100.00
30967;BME280;17649;51.836;8.330;2024-01-06T00:33:49;99647.09;;;7.12;100.00
30967;BME280;17649;51.836;8.330;2024-01-06T00:36:49;99655.94;;;6.92;100.00
30967;BME280;17649;51.836;8.330;2024-01-06T00:39:50;99663.50;;;6.79;100.00
30967;BME280;17649;51.836;8.330;2024-01-06T00:42:50;99658.69;;;6.73;100.00
30967;BME280;17649;51.836;8.330;2024-01-06T00:45:50;99662.97;;;7.04;100.00
30967;BME280;17649;51.836;8.330;2024-01-06T00:48:51;99664.66;;;6.90;100.00
30967;BME280;17649;51.836;8.330;2024-01-06T00:51:51;99670.13;;;6.83;100.00
30967;BME280;17649;51.836;8.330;2024-01-06T00:54:52;99670.38;;;6.95;100.00
30967;BME280;17649;51.836;8.330;2024-01-06T00:57:52;99662.25;;;7.02;100.00
30967;BME280;17649;51.836;8.330;2024-01-06T01:00:52;99674.19;;;7.03;100.00
30967;BME280;17649;51.836;8.330;2024-01-06T01:03:52;99674.09;;;7.05;100.00
30967;BME280;17649;51.836;8.330;2024-01-06T01:06:53;99680.75;;;6.93;100.00
30967;BME280;17649;51.836;8.330;2024-01-06T01:09:53;99685.47;;;7.16;100.00
30967;BME280;17649;51.836;8.330;2024-01-06T01:12:53;99694.41;;;7.09;100.00
30967;BME280;17649;51.836;8.330;2024-01-06T01:15:54;99692.72;;;7.24;100.00
30967;BME280;17649;51.836;8.330;2024-01-06T01:18:54;99697.19;;;7.36;100.00
30967;BME280;17649;51.836;8.330;2024-01-06T01:21:54;99697.38;;;7.33;100.00
30967;BME280;17649;51.836;8.330;2024-01-06T01:24:55;99712.41;;;7.25;100.00
30967;BME280;17649;51.836;8.330;2024-01-06T01:27:56;99700.38;;;7.26;100.00
30967;BME280;17649;51.836;8.330;2024-01-06T01:30:56;99716.06;;;7.21;100.00
30967;BME280;17649;51.836;8.330;2024-01-06T01:33:56;99720.47;;;7.19;100.00
30967;BME280;17649;51.836;8.330;2024-01-06T01:36:57;99709.00;;;7.25;100.00
30967;BME280;17649;51.836;8.330;2024-01-06T01:39:57;99716.06;;;7.21;100.00
30967;BME280;17649;51.836;8.330;2024-01-06T01:42:57;99729.84;;;7.20;100.00
30967;BME280;17649;51.836;8.330;2024-01-06T01:45:58;99714.50;;;7.18;100.00
30967;BME280;17649;51.836;8.330;2024-01-06T01:49:00;99714.66;;;7.31;100.00
30967;BME280;17649;51.836;8.330;2024-01-06T01:52:01;99710.66;;;7.26;100.00
30967;BME280;17649;51.836;8.330;2024-01-06T01:55:01;99715.94;;;7.38;100.00
30967;BME280;17649;51.836;8.330;2024-01-06T01:58:02;99721.56;;;7.61;100.00
30967;BME280;17649;51.836;8.330;2024-01-06T02:01:03;99720.38;;;7.66;100.00
30967;BME280;17649;51.836;8.330;2024-01-06T02:04:03;99726.84;;;7.58;100.00
30967;BME280;17649;51.836;8.330;2024-01-06T02:07:04;99725.06;;;7.60;100.00
30967;BME280;17649;51.836;8.330;2024-01-06T02:10:05;99724.69;;;7.66;100.00
30967;BME280;17649;51.836;8.330;2024-01-06T02:13:10;99730.72;;;7.51;100.00
30967;BME280;17649;51.836;8.330;2024-01-06T02:16:10;99739.59;;;7.61;100.00
30967;BME280;17649;51.836;8.330;2024-01-06T02:19:12;99732.97;;;7.71;100.00
30967;BME280;17649;51.836;8.330;2024-01-06T02:22:13;99738.34;;;7.52;100.00
30967;BME280;17649;51.836;8.330;2024-01-06T02:25:13;99744.91;;;7.42;100.00
30967;BME280;17649;51.836;8.330;2024-01-06T02:28:13;99749.09;;;7.44;100.00
30967;BME280;17649;51.836;8.330;2024-01-06T02:31:14;99746.28;;;7.63;100.00
30967;BME280;17649;51.836;8.330;2024-01-06T02:37:24;99735.69;;;7.54;100.00
30967;BME280;17649;51.836;8.330;2024-01-06T02:40:25;99740.88;;;7.68;100.00
30967;BME280;17649;51.836;8.330;2024-01-06T02:43:25;99744.09;;;7.71;100.00
30967;BME280;17649;51.836;8.330;2024-01-06T02:46:25;99750.56;;;7.48;100.00
30967;BME280;17649;51.836;8.330;2024-01-06T02:49:26;99755.28;;;7.40;100.00
30967;BME280;17649;51.836;8.330;2024-01-06T02:52:26;99765.94;;;7.34;100.00
30967;BME280;17649;51.836;8.330;2024-01-06T02:55:26;99768.63;;;7.17;100.00
30967;BME280;17649;51.836;8.330;2024-01-06T02:58:27;99772.09;;;7.32;100.00
30967;BME280;17649;51.836;8.330;2024-01-06T03:01:27;99784.53;;;7.24;100.00
30967;BME280;17649;51.836;8.330;2024-01-06T03:04:27;99780.31;;;7.23;100.00
30967;BME280;17649;51.836;8.330;2024-01-06T03:10:30;99790.41;;;7.26;100.00
30967;BME280;17649;51.836;8.330;2024-01-06T03:13:33;99787.34;;;7.35;100.00
30967;BME280;17649;51.836;8.330;2024-01-06T03:16:34;99782.69;;;7.10;100.00
30967;BME280;17649;51.836;8.330;2024-01-06T03:19:34;99794.34;;;7.17;100.00
30967;BME280;17649;51.836;8.330;2024-01-06T03:22:35;99798.31;;;7.07;100.00
30967;BME280;17649;51.836;8.330;2024-01-06T03:25:36;99801.22;;;7.01;100.00
30967;BME280;17649;51.836;8.330;2024-01-06T03:28:36;99797.56;;;7.05;100.00
30967;BME280;17649;51.836;8.330;2024-01-06T03:31:36;99796.81;;;7.03;100.00
30967;BME280;17649;51.836;8.330;2024-01-06T03:34:37;99796.47;;;7.09;100.00
30967;BME280;17649;51.836;8.330;2024-01-06T03:37:37;99792.25;;;6.92;100.00
30967;BME280;17649;51.836;8.330;2024-01-06T03:40:37;99805.94;;;6.93;100.00
30967;BME280;17649;51.836;8.330;2024-01-06T03:43:38;99798.38;;;6.90;100.00
30967;BME280;17649;51.836;8.330;2024-01-06T03:46:38;99798.09;;;6.78;100.00
30967;BME280;17649;51.836;8.330;2024-01-06T03:49:38;99800.28;;;6.86;100.00
30967;BME280;17649;51.836;8.330;2024-01-06T03:52:39;99810.81;;;6.97;100.00
30967;BME280;17649;51.836;8.330;2024-01-06T03:55:39;99805.44;;;6.86;100.00
30967;BME280;17649;51.836;8.330;2024-01-06T03:58:40;99820.16;;;6.82;100.00
30967;BME280;17649;51.836;8.330;2024-01-06T04:01:40;99825.56;;;6.78;100.00
30967;BME280;17649;51.836;8.330;2024-01-06T04:04:40;99820.06;;;6.68;100.00
30967;BME280;17649;51.836;8.330;2024-01-06T04:07:41;99825.56;;;6.78;100.00
30967;BME280;17649;51.836;8.330;2024-01-06T04:10:41;99826.28;;;6.64;100.00
30967;BME280;17649;51.836;8.330;2024-01-06T04:13:41;99831.75;;;6.58;100.00
30967;BME280;17649;51.836;8.330;2024-01-06T04:16:42;99829.59;;;6.66;100.00
30967;BME280;17649;51.836;8.330;2024-01-06T04:19:42;99841.03;;;6.61;100.00
30967;BME280;17649;51.836;8.330;2024-01-06T04:22:42;99839.22;;;6.45;100.00
30967;BME280;17649;51.836;8.330;2024-01-06T05:10:06;99876.44;;;6.55;100.00
30967;BME280;17649;51.836;8.330;2024-01-06T05:13:06;99872.69;;;6.61;100.00
30967;BME280;17649;51.836;8.330;2024-01-06T05:16:07;99868.97;;;6.67;100.00
30967;BME280;17649;51.836;8.330;2024-01-06T05:19:08;99876.94;;;6.62;100.00
30967;BME280;17649;51.836;8.330;2024-01-06T05:22:12;99885.38;;;6.81;100.00
30967;BME280;17649;51.836;8.330;2024-01-06T05:28:21;99878.22;;;6.36;100.00
30967;BME280;17649;51.836;8.330;2024-01-06T05:31:22;99889.47;;;6.51;100.00
30967;BME280;17649;51.836;8.330;2024-01-06T05:34:22;99899.91;;;6.65;100.00
30967;BME280;17649;51.836;8.330;2024-01-06T05:37:26;99890.63;;;6.45;100.00
30967;BME280;17649;51.836;8.330;2024-01-06T05:40:26;99890.63;;;6.63;100.00
30967;BME280;17649;51.836;8.330;2024-01-06T05:43:27;99915.78;;;6.21;100.00
30967;BME280;17649;51.836;8.330;2024-01-06T05:46:31;99909.72;;;6.40;100.00
30967;BME280;17649;51.836;8.330;2024-01-06T05:49:31;99926.38;;;6.50;100.00
30967;BME280;17649;51.836;8.330;2024-01-06T05:52:32;99922.31;;;6.46;100.00
30967;BME280;17649;51.836;8.330;2024-01-06T05:55:33;99921.06;;;6.53;100.00
30967;BME280;17649;51.836;8.330;2024-01-06T05:58:33;99926.53;;;6.47;100.00
30967;BME280;17649;51.836;8.330;2024-01-06T06:01:34;99938.63;;;6.45;100.00
30967;BME280;17649;51.836;8.330;2024-01-06T06:04:34;99937.97;;;6.58;100.00
30967;BME280;17649;51.836;8.330;2024-01-06T06:07:36;99946.41;;;6.43;100.00
30967;BME280;17649;51.836;8.330;2024-01-06T06:10:39;99940.56;;;6.22;100.00
30967;BME280;17649;51.836;8.330;2024-01-06T06:14:00;99944.22;;;6.53;100.00
30967;BME280;17649;51.836;8.330;2024-01-06T06:17:03;99941.72;;;6.51;100.00
30967;BME280;17649;51.836;8.330;2024-01-06T06:20:06;99955.97;;;6.22;100.00
30967;BME280;17649;51.836;8.330;2024-01-06T06:23:07;99960.59;;;6.33;100.00
30967;BME280;17649;51.836;8.330;2024-01-06T06:26:08;99970.06;;;6.50;100.00
30967;BME280;17649;51.836;8.330;2024-01-06T06:29:09;99968.72;;;6.43;100.00
30967;BME280;17649;51.836;8.330;2024-01-06T06:32:12;99974.31;;;6.51;100.00
30967;BME280;17649;51.836;8.330;2024-01-06T06:35:13;99977.63;;;6.53;100.00
30967;BME280;17649;51.836;8.330;2024-01-06T06:38:13;99992.78;;;6.59;100.00
30967;BME280;17649;51.836;8.330;2024-01-06T06:41:14;99993.03;;;6.36;100.00
30967;BME280;17649;51.836;8.330;2024-01-06T06:44:15;100001.22;;;6.44;100.00
30967;BME280;17649;51.836;8.330;2024-01-06T06:47:16;100007.22;;;6.62;100.00
30967;BME280;17649;51.836;8.330;2024-01-06T06:50:17;100008.94;;;6.44;100.00
30967;BME280;17649;51.836;8.330;2024-01-06T06:53:17;100008.25;;;6.21;100.00
30967;BME280;17649;51.836;8.330;2024-01-06T06:56:18;100017.16;;;6.14;100.00
30967;BME280;17649;51.836;8.330;2024-01-06T06:59:18;100025.78;;;6.13;100.00
30967;BME280;17649;51.836;8.330;2024-01-06T07:02:19;100029.31;;;6.11;100.00
30967;BME280;17649;51.836;8.330;2024-01-06T07:05:20;100030.50;;;6.04;100.00
30967;BME280;17649;51.836;8.330;2024-01-06T07:08:21;100037.06;;;6.09;100.00
30967;BME280;17649;51.836;8.330;2024-01-06T07:11:24;100043.41;;;6.02;100.00
30967;BME280;17649;51.836;8.330;2024-01-06T07:14:24;100041.81;;;6.18;100.00
30967;BME280;17649;51.836;8.330;2024-01-06T07:17:25;100053.41;;;6.27;100.00
30967;BME280;17649;51.836;8.330;2024-01-06T07:20:26;100049.72;;;6.33;100.00
30967;BME280;17649;51.836;8.330;2024-01-06T07:23:26;100058.50;;;6.46;100.00
30967;BME280;17649;51.836;8.330;2024-01-06T07:26:27;100067.78;;;6.12;100.00
30967;BME280;17649;51.836;8.330;2024-01-06T07:29:31;100074.72;;;6.10;100.00
30967;BME280;17649;51.836;8.330;2024-01-06T07:32:32;100075.13;;;6.01;100.00
30967;BME280;17649;51.836;8.330;2024-01-06T07:35:33;100072.63;;;5.79;100.00
30967;BME280;17649;51.836;8.330;2024-01-06T07:38:33;100086.50;;;5.75;100.00
30967;BME280;17649;51.836;8.330;2024-01-06T07:41:34;100096.09;;;5.72;100.00
30967;BME280;17649;51.836;8.330;2024-01-06T07:44:34;100092.63;;;5.73;100.00
30967;BME280;17649;51.836;8.330;2024-01-06T07:47:35;100103.16;;;5.66;100.00
30967;BME280;17649;51.836;8.330;2024-01-06T07:50:36;100110.28;;;5.60;100.00
30967;BME280;17649;51.836;8.330;2024-01-06T07:53:36;100111.94;;;5.81;100.00
30967;BME280;17649;51.836;8.330;2024-01-06T07:56:37;100119.31;;;5.68;100.00
30967;BME280;17649;51.836;8.330;2024-01-06T07:59:37;100127.09;;;5.47;100.00
30967;BME280;17649;51.836;8.330;2024-01-06T08:02:38;100132.28;;;5.45;100.00
30967;BME280;17649;51.836;8.330;2024-01-06T08:05:38;100141.00;;;5.61;100.00
30967;BME280;17649;51.836;8.330;2024-01-06T08:08:39;100141.78;;;5.63;100.00
30967;BME280;17649;51.836;8.330;2024-01-06T08:11:39;100138.91;;;5.71;100.00
30967;BME280;17649;51.836;8.330;2024-01-06T08:14:40;100146.28;;;5.58;100.00
30967;BME280;17649;51.836;8.330;2024-01-06T08:17:40;100152.44;;;5.75;100.00
30967;BME280;17649;51.836;8.330;2024-01-06T08:20:41;100156.72;;;5.74;100.00
30967;BME280;17649;51.836;8.330;2024-01-06T08:23:41;100167.84;;;5.75;100.00
30967;BME280;17649;51.836;8.330;2024-01-06T08:26:42;100165.16;;;5.57;100.00
30967;BME280;17649;51.836;8.330;2024-01-06T08:29:42;100175.94;;;5.65;100.00
30967;BME280;17649;51.836;8.330;2024-01-06T08:32:43;100174.84;;;5.51;100.00
30967;BME280;17649;51.836;8.330;2024-01-06T08:35:44;100191.63;;;5.58;100.00
30967;BME280;17649;51.836;8.330;2024-01-06T08:38:44;100192.09;;;5.67;100.00
30967;BME280;17649;51.836;8.330;2024-01-06T08:41:45;100199.91;;;5.64;100.00
30967;BME280;17649;51.836;8.330;2024-01-06T08:44:46;100204.31;;;5.41;100.00
30967;BME280;17649;51.836;8.330;2024-01-06T08:47:47;100211.97;;;5.62;100.00
30967;BME280;17649;51.836;8.330;2024-01-06T08:50:47;100222.09;;;5.45;100.00
30967;BME280;17649;51.836;8.330;2024-01-06T08:53:48;100217.91;;;5.22;100.00
30967;BME280;17649;51.836;8.330;2024-01-06T08:56:48;100229.63;;;5.28;100.00
30967;BME280;17649;51.836;8.330;2024-01-06T08:59:49;100231.50;;;5.24;100.00
30967;BME280;17649;51.836;8.330;2024-01-06T09:02:49;100237.03;;;5.14;100.00
30967;BME280;17649;51.836;8.330;2024-01-06T09:05:54;100244.25;;;5.26;100.00
30967;BME280;17649;51.836;8.330;2024-01-06T09:08:55;100246.44;;;5.13;100.00
30967;BME280;17649;51.836;8.330;2024-01-06T09:11:56;100246.25;;;5.18;100.00
30967;BME280;17649;51.836;8.330;2024-01-06T09:14:56;100252.28;;;5.17;100.00
30967;BME280;17649;51.836;8.330;2024-01-06T09:18:00;100259.94;;;5.40;100.00
30967;BME280;17649;51.836;8.330;2024-01-06T09:21:14;100265.53;;;5.50;100.00
30967;BME280;17649;51.836;8.330;2024-01-06T09:24:15;100268.19;;;5.26;100.00
30967;BME280;17649;51.836;8.330;2024-01-06T09:27:15;100277.69;;;5.01;100.00
30967;BME280;17649;51.836;8.330;2024-01-06T09:30:16;100273.19;;;5.07;100.00
30967;BME280;17649;51.836;8.330;2024-01-06T09:33:16;100279.66;;;4.94;100.00
30967;BME280;17649;51.836;8.330;2024-01-06T09:36:17;100287.28;;;4.72;100.00
30967;BME280;17649;51.836;8.330;2024-01-06T09:39:18;100290.81;;;4.70;100.00
30967;BME280;17649;51.836;8.330;2024-01-06T09:42:18;100298.59;;;4.90;100.00
30967;BME280;17649;51.836;8.330;2024-01-06T09:45:25;100303.06;;;4.85;100.00
30967;BME280;17649;51.836;8.330;2024-01-06T09:48:29;100310.53;;;4.68;100.00
30967;BME280;17649;51.836;8.330;2024-01-06T09:51:30;100315.09;;;4.83;100.00
30967;BME280;17649;51.836;8.330;2024-01-06T09:54:31;100319.28;;;4.86;100.00
30967;BME280;17649;51.836;8.330;2024-01-06T09:57:34;100318.28;;;5.13;100.00
30967;BME280;17649;51.836;8.330;2024-01-06T10:00:35;100310.13;;;5.02;100.00
30967;BME280;17649;51.836;8.330;2024-01-06T10:03:37;100318.84;;;5.21;100.00
30967;BME280;17649;51.836;8.330;2024-01-06T10:06:37;100315.88;;;5.08;100.00
30967;BME280;17649;51.836;8.330;2024-01-06T10:09:38;100326.34;;;5.02;100.00
30967;BME280;17649;51.836;8.330;2024-01-06T10:12:39;100331.06;;;4.91;100.00
30967;BME280;17649;51.836;8.330;2024-01-06T10:15:39;100335.00;;;4.76;100.00
30967;BME280;17649;51.836;8.330;2024-01-06T10:18:40;100340.06;;;4.78;100.00
30967;BME280;17649;51.836;8.330;2024-01-06T10:21:40;100334.28;;;4.96;100.00
30967;BME280;17649;51.836;8.330;2024-01-06T10:24:41;100340.00;;;5.03;100.00
30967;BME280;17649;51.836;8.330;2024-01-06T10:27:41;100341.75;;;4.54;100.00
30967;BME280;17649;51.836;8.330;2024-01-06T10:30:41;100341.69;;;4.81;100.00
30967;BME280;17649;51.836;8.330;2024-01-06T10:33:43;100350.81;;;4.64;100.00
30967;BME280;17649;51.836;8.330;2024-01-06T10:36:43;100352.31;;;4.70;100.00
30967;BME280;17649;51.836;8.330;2024-01-06T10:39:44;100351.59;;;4.90;100.00
30967;BME280;17649;51.836;8.330;2024-01-06T10:42:45;100362.53;;;4.95;100.00
30967;BME280;17649;51.836;8.330;2024-01-06T10:45:45;100356.75;;;5.13;100.00
30967;BME280;17649;51.836;8.330;2024-01-06T10:48:47;100356.84;;;5.10;100.00
30967;BME280;17649;51.836;8.330;2024-01-06T10:51:48;100357.31;;;5.21;100.00
30967;BME280;17649;51.836;8.330;2024-01-06T10:54:51;100355.41;;;5.48;100.00
30967;BME280;17649;51.836;8.330;2024-01-06T10:57:54;100355.28;;;5.29;100.00
30967;BME280;17649;51.836;8.330;2024-01-06T11:00:58;100349.91;;;5.35;100.00
30967;BME280;17649;51.836;8.330;2024-01-06T11:04:00;100347.25;;;5.15;100.00
30967;BME280;17649;51.836;8.330;2024-01-06T11:07:03;100349.28;;;5.07;100.00
30967;BME280;17649;51.836;8.330;2024-01-06T11:10:14;100348.28;;;5.33;100.00
30967;BME280;17649;51.836;8.330;2024-01-06T11:13:22;100352.66;;;5.31;100.00
30967;BME280;17649;51.836;8.330;2024-01-06T11:16:37;100351.03;;;5.28;100.00
30967;BME280;17649;51.836;8.330;2024-01-06T11:19:43;100346.94;;;5.24;100.00
30967;BME280;17649;51.836;8.330;2024-01-06T11:22:45;100347.03;;;5.21;100.00
30967;BME280;17649;51.836;8.330;2024-01-06T11:25:46;100344.63;;;5.17;100.00
30967;BME280;17649;51.836;8.330;2024-01-06T11:28:47;100349.50;;;5.01;100.00
30967;BME280;17649;51.836;8.330;2024-01-06T11:32:16;100349.31;;;4.82;100.00
30967;BME280;17649;51.836;8.330;2024-01-06T11:35:18;100356.00;;;4.86;100.00
30967;BME280;17649;51.836;8.330;2024-01-06T11:38:18;100357.41;;;4.95;100.00
30967;BME280;17649;51.836;8.330;2024-01-06T11:41:48;100364.16;;;4.97;100.00
30967;BME280;17649;51.836;8.330;2024-01-06T11:44:52;100368.59;;;4.69;100.00
30967;BME280;17649;51.836;8.330;2024-01-06T11:47:57;100364.28;;;4.69;100.00
30967;BME280;17649;51.836;8.330;2024-01-06T11:50:59;100370.84;;;4.53;100.00
30967;BME280;17649;51.836;8.330;2024-01-06T11:53:59;100373.09;;;4.37;100.00
30967;BME280;17649;51.836;8.330;2024-01-06T11:57:00;100374.00;;;4.60;100.00
30967;BME280;17649;51.836;8.330;2024-01-06T12:00:00;100374.31;;;4.75;100.00
30967;BME280;17649;51.836;8.330;2024-01-06T12:03:01;100369.41;;;4.94;100.00
30967;BME280;17649;51.836;8.330;2024-01-06T12:06:02;100372.41;;;5.05;100.00
30967;BME280;17649;51.836;8.330;2024-01-06T12:09:06;100375.63;;;5.34;100.00
30967;BME280;17649;51.836;8.330;2024-01-06T12:12:07;100368.56;;;5.17;100.00
30967;BME280;17649;51.836;8.330;2024-01-06T12:15:09;100367.25;;;5.05;100.00
30967;BME280;17649;51.836;8.330;2024-01-06T12:18:10;100370.28;;;5.17;100.00
30967;BME280;17649;51.836;8.330;2024-01-06T12:21:10;100374.06;;;4.83;100.00
30967;BME280;17649;51.836;8.330;2024-01-06T12:24:21;100375.59;;;5.12;100.00
30967;BME280;17649;51.836;8.330;2024-01-06T12:27:22;100374.94;;;5.07;100.00
30967;BME280;17649;51.836;8.330;2024-01-06T12:30:24;100379.72;;;4.93;100.00
30967;BME280;17649;51.836;8.330;2024-01-06T12:33:25;100382.63;;;5.07;100.00
30967;BME280;17649;51.836;8.330;2024-01-06T12:36:26;100381.22;;;4.98;100.00
30967;BME280;17649;51.836;8.330;2024-01-06T12:39:30;100382.72;;;5.27;100.00
30967;BME280;17649;51.836;8.330;2024-01-06T12:42:31;100380.78;;;5.11;100.00
30967;BME280;17649;51.836;8.330;2024-01-06T12:45:32;100378.69;;;5.44;100.00
30967;BME280;17649;51.836;8.330;2024-01-06T12:48:32;100373.28;;;5.51;100.00
30967;BME280;17649;51.836;8.330;2024-01-06T12:51:33;100381.94;;;5.02;100.00
30967;BME280;17649;51.836;8.330;2024-01-06T12:54:34;100377.63;;;5.02;100.00
30967;BME280;17649;51.836;8.330;2024-01-06T12:57:35;100380.78;;;5.11;100.00
30967;BME280;17649;51.836;8.330;2024-01-06T13:00:35;100390.25;;;5.08;100.00
30967;BME280;17649;51.836;8.330;2024-01-06T13:03:37;100395.88;;;4.95;100.00
30967;BME280;17649;51.836;8.330;2024-01-06T13:06:37;100389.41;;;5.08;100.00
30967;BME280;17649;51.836;8.330;2024-01-06T13:09:40;100393.03;;;5.02;100.00
30967;BME280;17649;51.836;8.330;2024-01-06T13:12:40;100402.88;;;4.90;100.00
30967;BME280;17649;51.836;8.330;2024-01-06T13:15:41;100401.72;;;4.98;100.00
30967;BME280;17649;51.836;8.330;2024-01-06T13:18:41;100411.66;;;5.07;100.00
30967;BME280;17649;51.836;8.330;2024-01-06T13:21:42;100416.50;;;5.15;100.00
30967;BME280;17649;51.836;8.330;2024-01-06T13:24:42;100429.72;;;5.04;100.00
30967;BME280;17649;51.836;8.330;2024-01-06T13:27:43;100422.53;;;5.14;100.00
30967;BME280;17649;51.836;8.330;2024-01-06T13:30:43;100422.75;;;5.08;100.00
30967;BME280;17649;51.836;8.330;2024-01-06T13:33:43;100434.44;;;4.92;100.00
30967;BME280;17649;51.836;8.330;2024-01-06T13:36:44;100438.09;;;4.85;100.00
30967;BME280;17649;51.836;8.330;2024-01-06T13:39:44;100448.19;;;4.64;100.00
30967;BME280;17649;51.836;8.330;2024-01-06T13:42:49;100453.25;;;4.92;100.00
30967;BME280;17649;51.836;8.330;2024-01-06T13:45:50;100439.72;;;5.12;100.00
30967;BME280;17649;51.836;8.330;2024-01-06T13:48:51;100447.16;;;4.95;100.00
30967;BME280;17649;51.836;8.330;2024-01-06T13:51:51;100456.94;;;4.84;100.00
30967;BME280;17649;51.836;8.330;2024-01-06T13:54:52;100459.75;;;4.76;100.00
30967;BME280;17649;51.836;8.330;2024-01-06T13:57:53;100461.91;;;4.88;100.00
30967;BME280;17649;51.836;8.330;2024-01-06T14:00:53;100464.59;;;4.59;100.00
30967;BME280;17649;51.836;8.330;2024-01-06T14:03:54;100467.09;;;4.62;100.00
30967;BME280;17649;51.836;8.330;2024-01-06T14:06:57;100467.72;;;4.68;100.00
30967;BME280;17649;51.836;8.330;2024-01-06T14:10:01;100470.94;;;4.73;100.00
30967;BME280;17649;51.836;8.330;2024-01-06T14:13:03;100474.63;;;4.66;100.00
30967;BME280;17649;51.836;8.330;2024-01-06T14:16:04;100475.19;;;4.74;100.00
30967;BME280;17649;51.836;8.330;2024-01-06T14:19:04;100483.16;;;4.92;100.00
30967;BME280;17649;51.836;8.330;2024-01-06T14:22:05;100485.03;;;4.62;100.00
30967;BME280;17649;51.836;8.330;2024-01-06T14:25:06;100491.50;;;4.72;100.00
30967;BME280;17649;51.836;8.330;2024-01-06T14:28:06;100487.16;;;4.74;100.00
30967;BME280;17649;51.836;8.330;2024-01-06T14:31:07;100490.75;;;4.95;100.00
30967;BME280;17649;51.836;8.330;2024-01-06T14:34:07;100491.00;;;4.87;100.00
30967;BME280;17649;51.836;8.330;2024-01-06T14:37:07;100493.28;;;4.70;100.00
30967;BME280;17649;51.836;8.330;2024-01-06T14:40:08;100495.16;;;4.91;100.00
30967;BME280;17649;51.836;8.330;2024-01-06T14:43:09;100500.41;;;4.87;100.00
30967;BME280;17649;51.836;8.330;2024-01-06T14:46:10;100498.31;;;4.73;100.00
30967;BME280;17649;51.836;8.330;2024-01-06T14:49:10;100511.75;;;4.27;100.00
30967;BME280;17649;51.836;8.330;2024-01-06T14:52:11;100520.53;;;4.46;100.00
30967;BME280;17649;51.836;8.330;2024-01-06T14:55:11;100518.44;;;4.31;100.00
30967;BME280;17649;51.836;8.330;2024-01-06T14:58:12;100530.66;;;4.23;100.00
30967;BME280;17649;51.836;8.330;2024-01-06T15:01:12;100524.97;;;4.13;100.00
30967;BME280;17649;51.836;8.330;2024-01-06T15:04:13;100533.59;;;4.38;100.00
30967;BME280;17649;51.836;8.330;2024-01-06T15:07:14;100536.75;;;4.46;100.00
30967;BME280;17649;51.836;8.330;2024-01-06T15:10:15;100537.25;;;4.30;100.00
30967;BME280;17649;51.836;8.330;2024-01-06T15:13:16;100543.72;;;4.41;100.00
30967;BME280;17649;51.836;8.330;2024-01-06T15:16:16;100542.84;;;4.42;100.00
30967;BME280;17649;51.836;8.330;2024-01-06T15:19:16;100546.53;;;4.62;100.00
30967;BME280;17649;51.836;8.330;2024-01-06T15:22:17;100552.91;;;4.75;100.00
30967;BME280;17649;51.836;8.330;2024-01-06T15:25:18;100551.28;;;4.72;100.00
30967;BME280;17649;51.836;8.330;2024-01-06T15:28:19;100557.94;;;4.52;100.00
30967;BME280;17649;51.836;8.330;2024-01-06T15:31:20;100556.03;;;4.58;100.00
30967;BME280;17649;51.836;8.330;2024-01-06T15:34:20;100564.75;;;4.53;100.00
30967;BME280;17649;51.836;8.330;2024-01-06T15:37:22;100573.41;;;4.48;100.00
30967;BME280;17649;51.836;8.330;2024-01-06T15:40:23;100567.66;;;4.68;100.00
30967;BME280;17649;51.836;8.330;2024-01-06T15:43:23;100571.69;;;4.77;100.00
30967;BME280;17649;51.836;8.330;2024-01-06T15:46:24;100578.47;;;4.78;100.00
30967;BME280;17649;51.836;8.330;2024-01-06T15:49:24;100581.47;;;4.64;100.00
30967;BME280;17649;51.836;8.330;2024-01-06T15:52:24;100588.41;;;4.61;100.00
30967;BME280;17649;51.836;8.330;2024-01-06T15:55:25;100591.19;;;4.81;100.00
30967;BME280;17649;51.836;8.330;2024-01-06T15:58:25;100594.72;;;4.51;100.00
30967;BME280;17649;51.836;8.330;2024-01-06T16:01:25;100592.19;;;4.75;100.00
30967;BME280;17649;51.836;8.330;2024-01-06T16:04:26;100594.03;;;4.72;100.00
30967;BME280;17649;51.836;8.330;2024-01-06T16:07:26;100600.00;;;4.44;100.00
30967;BME280;17649;51.836;8.330;2024-01-06T16:10:28;100607.78;;;4.69;100.00
30967;BME280;17649;51.836;8.330;2024-01-06T16:13:28;100614.50;;;4.45;100.00
30967;BME280;17649;51.836;8.330;2024-01-06T16:16:29;100617.31;;;4.66;100.00
30967;BME280;17649;51.836;8.330;2024-01-06T16:19:29;100618.00;;;4.71;100.00
30967;BME280;17649;51.836;8.330;2024-01-06T16:22:30;100622.28;;;4.42;100.00
30967;BME280;17649;51.836;8.330;2024-01-06T16:25:30;100627.28;;;4.45;100.00
30967;BME280;17649;51.836;8.330;2024-01-06T16:28:31;100634.13;;;4.46;100.00
30967;BME280;17649;51.836;8.330;2024-01-06T16:31:31;100629.69;;;4.52;100.00
30967;BME280;17649;51.836;8.330;2024-01-06T16:34:33;100634.94;;;4.75;100.00
30967;BME280;17649;51.836;8.330;2024-01-06T16:37:33;100632.38;;;4.19;100.00
30967;BME280;17649;51.836;8.330;2024-01-06T16:40:34;100639.16;;;4.49;100.00
30967;BME280;17649;51.836;8.330;2024-01-06T16:43:34;100639.75;;;4.58;100.00